Time,TemperatureF,DewpointF,PressureIn,WindDirection,WindDirectionDegrees,WindSpeedMPH,WindSpeedGustMPH,Humidity,HourlyPrecipIn,Conditions,Clouds,dailyrainin,SoftwareType,DateUTC
2013-12-26 00:14:00,10.0,-2.0,30.71,South,180,0.0,-999.0,59,-99.99,,,0.00,weatherlink.com 1.10,2013-12-26 07:14:00,
2013-12-26 00:29:00,9.5,-2.0,30.66,South,180,0.0,-999.0,60,-99.99,,,0.00,weatherlink.com 1.10,2013-12-26 07:29:00,
2013-12-26 00:44:00,9.0,-2.0,30.68,South,180,0.0,-999.0,61,-99.99,,,0.00,weatherlink.com 1.10,2013-12-26 07:44:00,
2013-12-26 00:59:00,9.0,-2.0,30.68,South,180,0.0,-999.0,61,-99.99,,,0.00,weatherlink.com 1.10,2013-12-26 07:59:00,
2013-12-26 01:14:00,8.8,-2.0,30.68,South,180,0.0,-999.0,61,-99.99,,,0.00,weatherlink.com 1.10,2013-12-26 08:14:00,
2013-12-26 01:29:00,8.6,-2.0,30.72,South,180,0.0,-999.0,61,-99.99,,,0.00,weatherlink.com 1.10,2013-12-26 08:29:00,
2013-12-26 01:45:00,8.6,-2.0,30.74,South,180,0.0,-999.0,61,-99.99,,,0.00,weatherlink.com 1.10,2013-12-26 08:45:00,
2013-12-26 02:00:00,8.3,-3.0,30.72,South,180,0.0,-999.0,61,-99.99,,,0.00,weatherlink.com 1.10,2013-12-26 09:00:00,
2013-12-26 02:15:00,8.3,-2.0,30.75,South,180,0.0,-999.0,62,-99.99,,,0.00,weatherlink.com 1.10,2013-12-26 09:15:00,
2013-12-26 02:30:00,7.7,-3.0,30.77,South,180,0.0,-999.0,63,-99.99,,,0.00,weatherlink.com 1.10,2013-12-26 09:30:00,
2013-12-26 02:45:00,7.4,-3.0,30.77,South,180,0.0,-999.0,64,-99.99,,,0.00,weatherlink.com 1.10,2013-12-26 09:45:00,
2013-12-26 02:59:00,7.4,-3.0,30.77,South,180,0.0,-999.0,64,-99.99,,,0.00,weatherlink.com 1.10,2013-12-26 09:59:00,
2013-12-26 03:14:00,6.7,-3.0,30.77,South,180,0.0,-999.0,65,-99.99,,,0.00,weatherlink.com 1.10,2013-12-26 10:14:00,
2013-12-26 03:29:00,7.2,-2.0,30.77,South,180,0.0,-999.0,65,-99.99,,,0.00,weatherlink.com 1.10,2013-12-26 10:29:00,
2013-12-26 03:45:00,6.9,-3.0,30.76,South,180,0.0,-999.0,64,-99.99,,,0.00,weatherlink.com 1.10,2013-12-26 10:45:00,
2013-12-26 04:00:00,6.1,-3.0,30.76,South,180,0.0,-999.0,66,-99.99,,,0.00,weatherlink.com 1.10,2013-12-26 11:00:00,
2013-12-26 04:15:00,6.0,-3.0,30.77,South,180,0.0,-999.0,66,-99.99,,,0.00,weatherlink.com 1.10,2013-12-26 11:15:00,
2013-12-26 04:30:00,6.0,-3.0,30.81,South,180,0.0,-999.0,66,-99.99,,,0.00,weatherlink.com 1.10,2013-12-26 11:30:00,
2013-12-26 04:45:00,6.1,-3.0,30.81,South,180,0.0,-999.0,67,-99.99,,,0.00,weatherlink.com 1.10,2013-12-26 11:45:00,
2013-12-26 05:16:00,5.2,-3.0,30.81,South,180,0.0,-999.0,68,-99.99,,,0.00,weatherlink.com 1.10,2013-12-26 12:16:00,
2013-12-26 05:31:00,5.4,-4.0,30.85,South,180,0.0,-999.0,66,-99.99,,,0.00,weatherlink.com 1.10,2013-12-26 12:31:00,
2013-12-26 05:46:00,5.6,-3.0,30.86,South,180,0.0,-999.0,68,-99.99,,,0.00,weatherlink.com 1.10,2013-12-26 12:46:00,
2013-12-26 06:01:00,4.8,-4.0,30.86,South,180,0.0,-999.0,67,-99.99,,,0.00,weatherlink.com 1.10,2013-12-26 13:01:00,
2013-12-26 06:30:00,3.5,-5.0,30.89,South,180,0.0,-999.0,68,-99.99,,,0.00,weatherlink.com 1.10,2013-12-26 13:30:00,
2013-12-26 06:45:00,3.7,-4.0,30.93,South,180,0.0,-999.0,69,-99.99,,,0.00,weatherlink.com 1.10,2013-12-26 13:45:00,
2013-12-26 07:01:00,4.8,-3.0,30.91,South,180,0.0,-999.0,69,-99.99,,,0.00,weatherlink.com 1.10,2013-12-26 14:01:00,
2013-12-26 07:16:00,4.7,-4.0,30.91,South,180,0.0,-999.0,66,-99.99,,,0.00,weatherlink.com 1.10,2013-12-26 14:16:00,
2013-12-26 07:31:00,4.3,-4.0,30.91,South,180,0.0,-999.0,67,-99.99,,,0.00,weatherlink.com 1.10,2013-12-26 14:31:00,
2013-12-26 07:46:00,4.1,-4.0,30.91,South,180,0.0,-999.0,69,-99.99,,,0.00,weatherlink.com 1.10,2013-12-26 14:46:00,
2013-12-26 08:01:00,4.3,-4.0,30.91,South,180,0.0,-999.0,67,-99.99,,,0.00,weatherlink.com 1.10,2013-12-26 15:01:00,
2013-12-26 08:16:00,5.0,-4.0,30.90,South,180,0.0,-999.0,66,-99.99,,,0.00,weatherlink.com 1.10,2013-12-26 15:16:00,
2013-12-26 08:31:00,6.1,-4.0,30.90,South,180,0.0,-999.0,64,-99.99,,,0.00,weatherlink.com 1.10,2013-12-26 15:31:00,
2013-12-26 09:02:00,7.9,-3.0,30.89,South,180,0.0,-999.0,61,-99.99,,,0.00,weatherlink.com 1.10,2013-12-26 16:02:00,
2013-12-26 09:47:00,14.4,0.0,30.83,South,180,0.0,-999.0,52,-99.99,,,0.00,weatherlink.com 1.10,2013-12-26 16:47:00,
2013-12-26 10:17:00,18.4,1.0,30.77,South,180,0.0,-999.0,46,-99.99,,,0.00,weatherlink.com 1.10,2013-12-26 17:17:00,
2013-12-26 11:02:00,24.5,2.0,30.70,South,180,0.0,-999.0,37,-99.99,,,0.00,weatherlink.com 1.10,2013-12-26 18:02:00,
2013-12-26 11:33:00,29.0,2.0,30.64,ENE,71,0.0,-999.0,31,-99.99,,,0.00,weatherlink.com 1.10,2013-12-26 18:33:00,
2013-12-26 12:02:00,31.3,3.0,30.59,ENE,60,0.0,-999.0,30,-99.99,,,0.00,weatherlink.com 1.10,2013-12-26 19:02:00,
2013-12-26 12:33:00,32.9,6.0,30.57,ENE,60,0.0,-999.0,32,-99.99,,,0.00,weatherlink.com 1.10,2013-12-26 19:33:00,
2013-12-26 12:48:00,35.0,4.0,30.55,ENE,60,0.0,-999.0,27,-99.99,,,0.00,weatherlink.com 1.10,2013-12-26 19:48:00,
2013-12-26 13:03:00,37.6,5.0,30.51,ENE,60,0.0,-999.0,26,-99.99,,,0.00,weatherlink.com 1.10,2013-12-26 20:03:00,
2013-12-26 13:18:00,39.3,8.0,30.51,WNW,302,0.0,-999.0,27,-99.99,,,0.00,weatherlink.com 1.10,2013-12-26 20:18:00,
2013-12-26 13:33:00,39.2,7.0,30.49,NNE,30,0.0,-999.0,26,-99.99,,,0.00,weatherlink.com 1.10,2013-12-26 20:33:00,
2013-12-26 13:49:00,36.8,6.0,30.51,NE,47,0.0,-999.0,28,-99.99,,,0.00,weatherlink.com 1.10,2013-12-26 20:49:00,
2013-12-26 14:04:00,35.0,7.0,30.54,NE,44,0.0,-999.0,31,-99.99,,,0.00,weatherlink.com 1.10,2013-12-26 21:04:00,
2013-12-26 14:19:00,35.9,9.0,30.54,NE,45,0.0,-999.0,33,-99.99,,,0.00,weatherlink.com 1.10,2013-12-26 21:19:00,
2013-12-26 14:34:00,33.8,8.0,30.55,NE,45,0.0,-999.0,34,-99.99,,,0.00,weatherlink.com 1.10,2013-12-26 21:34:00,
2013-12-26 14:48:00,33.5,8.0,30.55,ENE,63,0.0,-999.0,34,-99.99,,,0.00,weatherlink.com 1.10,2013-12-26 21:48:00,
2013-12-26 15:03:00,32.1,7.0,30.59,ENE,59,1.0,-999.0,34,-99.99,,,0.00,weatherlink.com 1.10,2013-12-26 22:03:00,
2013-12-26 15:18:00,31.2,8.0,30.61,NE,45,0.0,-999.0,38,-99.99,,,0.00,weatherlink.com 1.10,2013-12-26 22:18:00,
2013-12-26 15:34:00,30.7,9.0,30.62,NNE,24,0.0,-999.0,41,-99.99,,,0.00,weatherlink.com 1.10,2013-12-26 22:34:00,
2013-12-26 15:49:00,30.4,10.0,30.62,NNE,23,0.0,-999.0,42,-99.99,,,0.00,weatherlink.com 1.10,2013-12-26 22:49:00,
2013-12-26 16:04:00,30.4,8.0,30.62,WNW,291,0.0,-999.0,39,-99.99,,,0.00,weatherlink.com 1.10,2013-12-26 23:04:00,
2013-12-26 16:19:00,29.4,7.0,30.65,NW,316,0.0,-999.0,38,-99.99,,,0.00,weatherlink.com 1.10,2013-12-26 23:19:00,
2013-12-26 16:34:00,28.4,7.0,30.66,NW,316,0.0,-999.0,41,-99.99,,,0.00,weatherlink.com 1.10,2013-12-26 23:34:00,
2013-12-26 16:49:00,26.7,6.0,30.68,NW,316,0.0,-999.0,42,-99.99,,,0.00,weatherlink.com 1.10,2013-12-26 23:49:00,
2013-12-26 17:04:00,25.7,7.0,30.70,NW,316,0.0,-999.0,45,-99.99,,,0.00,weatherlink.com 1.10,2013-12-27 00:04:00,
2013-12-26 17:20:00,25.3,8.0,30.70,NW,316,0.0,-999.0,47,-99.99,,,0.00,weatherlink.com 1.10,2013-12-27 00:20:00,
2013-12-26 17:35:00,24.8,8.0,30.71,NW,316,0.0,-999.0,48,-99.99,,,0.00,weatherlink.com 1.10,2013-12-27 00:35:00,
2013-12-26 17:50:00,25.0,9.0,30.71,NW,316,0.0,-999.0,50,-99.99,,,0.00,weatherlink.com 1.10,2013-12-27 00:50:00,
2013-12-26 18:05:00,24.5,9.0,30.71,NW,316,0.0,-999.0,53,-99.99,,,0.00,weatherlink.com 1.10,2013-12-27 01:05:00,
2013-12-26 18:20:00,24.2,10.0,30.73,NW,316,0.0,-999.0,54,-99.99,,,0.00,weatherlink.com 1.10,2013-12-27 01:20:00,
2013-12-26 18:34:00,23.8,9.0,30.74,NW,316,0.0,-999.0,54,-99.99,,,0.00,weatherlink.com 1.10,2013-12-27 01:34:00,
2013-12-26 18:49:00,23.6,9.0,30.74,NW,316,0.0,-999.0,55,-99.99,,,0.00,weatherlink.com 1.10,2013-12-27 01:49:00,
2013-12-26 19:05:00,23.8,10.0,30.75,NW,316,0.0,-999.0,57,-99.99,,,0.00,weatherlink.com 1.10,2013-12-27 02:05:00,
2013-12-26 19:20:00,23.8,10.0,30.75,NW,316,0.0,-999.0,56,-99.99,,,0.00,weatherlink.com 1.10,2013-12-27 02:20:00,
2013-12-26 19:35:00,23.3,10.0,30.75,NW,316,0.0,-999.0,57,-99.99,,,0.00,weatherlink.com 1.10,2013-12-27 02:35:00,
2013-12-26 19:50:00,23.0,10.0,30.78,NW,316,0.0,-999.0,58,-99.99,,,0.00,weatherlink.com 1.10,2013-12-27 02:50:00,
2013-12-26 20:05:00,22.7,10.0,30.78,WNW,302,0.0,-999.0,58,-99.99,,,0.00,weatherlink.com 1.10,2013-12-27 03:05:00,
2013-12-26 20:20:00,22.1,10.0,30.74,WNW,302,0.0,-999.0,60,-99.99,,,0.00,weatherlink.com 1.10,2013-12-27 03:20:00,
2013-12-26 20:35:00,21.1,9.0,30.76,WNW,302,0.0,-999.0,60,-99.99,,,0.00,weatherlink.com 1.10,2013-12-27 03:35:00,
2013-12-26 20:51:00,21.1,9.0,30.76,WNW,301,0.0,-999.0,61,-99.99,,,0.00,weatherlink.com 1.10,2013-12-27 03:51:00,
2013-12-26 21:06:00,22.2,9.0,30.75,SSW,202,0.0,-999.0,58,-99.99,,,0.00,weatherlink.com 1.10,2013-12-27 04:06:00,
2013-12-26 21:21:00,22.4,9.0,30.67,SSW,202,0.0,-999.0,57,-99.99,,,0.00,weatherlink.com 1.10,2013-12-27 04:21:00,
2013-12-26 21:35:00,22.1,9.0,30.67,SSW,202,1.0,-999.0,57,-99.99,,,0.00,weatherlink.com 1.10,2013-12-27 04:35:00,
2013-12-26 22:06:00,21.6,9.0,30.68,SSE,162,0.0,-999.0,58,-99.99,,,0.00,weatherlink.com 1.10,2013-12-27 05:06:00,
2013-12-26 22:21:00,21.3,8.0,30.61,South,173,0.0,-999.0,58,-99.99,,,0.00,weatherlink.com 1.10,2013-12-27 05:21:00,
2013-12-26 22:36:00,21.0,9.0,30.61,South,173,0.0,-999.0,59,-99.99,,,0.00,weatherlink.com 1.10,2013-12-27 05:36:00,
2013-12-26 22:51:00,20.5,8.0,30.61,SSE,157,0.0,-999.0,59,-99.99,,,0.00,weatherlink.com 1.10,2013-12-27 05:51:00,
2013-12-26 23:06:00,20.2,8.0,30.63,SSE,162,0.0,-999.0,59,-99.99,,,0.00,weatherlink.com 1.10,2013-12-27 06:06:00,
2013-12-26 23:21:00,20.0,8.0,30.57,SSE,160,0.0,-999.0,60,-99.99,,,0.00,weatherlink.com 1.10,2013-12-27 06:21:00,
2013-12-26 23:37:00,19.1,8.0,30.57,SSE,160,0.0,-999.0,61,-99.99,,,0.00,weatherlink.com 1.10,2013-12-27 06:37:00,